Time;durP1;ratioP1;P1;durP2;ratioP2;P2;SDS_P1;SDS_P2;PMS_P1;PMS_P2;Temp;Humidity;BMP_temperature;BMP_pressure;BME280_temperature;BME280_humidity;BME280_pressure;Samples;Min_cycle;Max_cycle;Signal;HPM_P1;HPM_P2
2021/08/24 00:01:06;;;;;;;3.03;1.52;;;16.30;69.70;;;;;;5094658;28;20487;-37
2021/08/24 00:03:32;;;;;;;3.28;1.52;;;16.30;69.70;;;;;;5094503;28;20044;-37
2021/08/24 00:05:57;;;;;;;2.58;1.63;;;16.40;69.50;;;;;;5093979;28;20034;-37
2021/08/24 00:08:23;;;;;;;8.02;2.20;;;16.30;69.90;;;;;;5094791;28;20155;-37
2021/08/24 00:10:52;;;;;;;5.65;1.90;;;16.30;70.30;;;;;;5094381;28;20028;-37
2021/08/24 00:13:20;;;;;;;4.37;1.70;;;16.20;70.60;;;;;;5094196;28;20040;-37
2021/08/24 00:15:47;;;;;;;3.08;1.73;;;16.20;70.50;;;;;;5094276;28;20028;-37
2021/08/24 00:18:13;;;;;;;4.88;2.10;;;16.20;70.70;;;;;;5094211;28;20488;-37
2021/08/24 00:20:40;;;;;;;1.90;1.70;;;16.20;70.90;;;;;;5094137;28;20023;-37
2021/08/24 00:23:10;;;;;;;2.40;1.77;;;16.10;71.00;;;;;;5094547;28;20081;-37
2021/08/24 00:25:37;;;;;;;6.47;1.80;;;16.10;71.20;;;;;;5094176;28;20085;-37
2021/08/24 00:28:03;;;;;;;3.17;1.63;;;16.10;71.60;;;;;;5095049;28;20277;-37
2021/08/24 00:30:28;;;;;;;7.93;1.95;;;16.10;71.40;;;;;;5094336;28;20028;-37
2021/08/24 00:32:54;;;;;;;4.93;1.77;;;16.00;71.60;;;;;;5094314;28;20468;-37
2021/08/24 00:35:20;;;;;;;4.00;2.83;;;16.00;71.90;;;;;;5093820;28;20028;-37
2021/08/24 00:37:46;;;;;;;1.92;1.42;;;16.00;71.80;;;;;;5094037;28;20031;-36
2021/08/24 00:40:12;;;;;;;3.22;1.90;;;16.00;72.10;;;;;;5094241;28;20024;-37
2021/08/24 00:42:39;;;;;;;3.72;1.55;;;15.80;72.40;;;;;;5092600;28;20028;-36
2021/08/24 00:45:07;;;;;;;4.70;2.30;;;15.80;72.70;;;;;;5093784;28;20046;-38
2021/08/24 00:47:34;;;;;;;2.97;2.30;;;15.80;72.90;;;;;;5093654;28;20052;-37
2021/08/24 00:50:12;;;;;;;1.40;1.30;;;15.80;72.90;;;;;;5093706;28;20082;-36
2021/08/24 00:52:37;;;;;;;2.70;1.90;;;15.70;73.10;;;;;;5093135;28;20031;-37
2021/08/24 00:55:03;;;;;;;4.82;2.30;;;15.60;73.40;;;;;;5093547;28;20032;-36
2021/08/24 00:57:29;;;;;;;3.83;2.13;;;15.70;73.50;;;;;;5093565;28;20039;-37
2021/08/24 00:59:56;;;;;;;4.07;2.00;;;15.60;73.60;;;;;;5093407;28;20417;-37
2021/08/24 01:02:25;;;;;;;4.38;2.38;;;15.50;74.10;;;;;;5093428;28;20024;-37
2021/08/24 01:04:52;;;;;;;3.05;2.03;;;15.50;74.20;;;;;;5093442;28;20051;-37
2021/08/24 01:07:25;;;;;;;2.30;1.95;;;15.30;74.60;;;;;;5093188;28;20023;-37
2021/08/24 01:10:03;;;;;;;3.13;1.92;;;15.30;74.80;;;;;;5093658;28;20103;-37
2021/08/24 01:13:00;;;;;;;5.60;2.03;;;15.30;74.90;;;;;;5093060;28;20377;-37
2021/08/24 01:15:25;;;;;;;4.85;2.72;;;15.30;75.20;;;;;;5093606;28;20038;-37
2021/08/24 01:18:02;;;;;;;9.15;2.20;;;15.20;75.50;;;;;;5093193;28;20028;-36
2021/08/24 01:20:44;;;;;;;9.80;2.72;;;15.20;75.70;;;;;;5093205;28;20050;-36
2021/08/24 01:23:25;;;;;;;3.10;2.03;;;15.10;76.00;;;;;;5093432;28;20371;-36
2021/08/24 01:26:15;;;;;;;5.13;2.15;;;15.10;76.40;;;;;;5093225;28;20036;-37
2021/08/24 01:29:25;;;;;;;4.88;2.42;;;15.00;76.50;;;;;;5092928;28;20377;-37
2021/08/24 01:31:55;;;;;;;;;;;14.90;77.00;;;;;;5093155;28;20081;-37
2021/08/24 01:34:40;;;;;;;3.27;2.33;;;15.00;77.00;;;;;;5091327;28;19916;-37
2021/08/24 01:37:25;;;;;;;4.68;2.75;;;14.80;77.50;;;;;;5093099;28;20027;-37
2021/08/24 01:39:54;;;;;;;4.00;2.55;;;14.80;77.70;;;;;;5093341;28;20479;-37
2021/08/24 01:42:27;;;;;;;5.68;2.22;;;14.80;77.80;;;;;;5093321;28;20047;-37
2021/08/24 01:44:52;;;;;;;5.93;2.50;;;14.80;77.90;;;;;;5093441;28;20479;-37
2021/08/24 01:47:22;;;;;;;3.08;2.17;;;14.80;78.00;;;;;;5093257;28;20023;-36
2021/08/24 01:50:34;;;;;;;5.53;2.58;;;14.70;78.30;;;;;;5093358;28;20383;-37
2021/08/24 01:53:21;;;;;;;5.07;2.90;;;14.80;78.50;;;;;;5082388;28;20531;-37
2021/08/24 01:55:54;;;;;;;5.63;2.47;;;14.70;79.00;;;;;;5093087;28;20024;-37
2021/08/24 01:58:34;;;;;;;5.88;2.95;;;14.70;79.10;;;;;;5093276;28;20178;-37
2021/08/24 02:01:05;;;;;;;5.72;3.75;;;14.70;79.10;;;;;;5093373;28;20055;-39
2021/08/24 02:03:38;;;;;;;6.38;3.25;;;14.70;79.20;;;;;;5095462;28;20345;-37
2021/08/24 02:06:30;;;;;;;5.63;3.30;;;14.70;79.40;;;;;;5097647;28;20039;-37
2021/08/24 02:09:00;;;;;;;4.85;3.28;;;14.60;79.50;;;;;;5065694;28;20399;-37
2021/08/24 02:11:30;;;;;;;3.35;2.78;;;14.60;79.60;;;;;;5095807;28;20111;-37
2021/08/24 02:13:59;;;;;;;5.57;3.40;;;14.50;80.10;;;;;;5095031;28;20050;-37
2021/08/24 02:16:28;;;;;;;5.03;3.42;;;14.60;80.20;;;;;;5096690;28;20306;-37
2021/08/24 02:19:00;;;;;;;12.35;4.72;;;14.50;80.30;;;;;;5096755;28;20027;-37
2021/08/24 02:21:45;;;;;;;6.20;3.50;;;14.50;80.60;;;;;;5096445;28;20035;-37
2021/08/24 02:24:16;;;;;;;4.68;3.00;;;14.50;80.40;;;;;;5095542;28;20047;-37
2021/08/24 02:26:44;;;;;;;4.15;3.00;;;14.40;80.80;;;;;;5096463;28;20024;-37
2021/08/24 02:29:10;;;;;;;4.35;2.72;;;14.40;81.00;;;;;;5096782;28;20050;-37
2021/08/24 02:31:54;;;;;;;7.13;3.65;;;14.40;81.00;;;;;;5096271;28;20024;-37
2021/08/24 02:34:30;;;;;;;5.30;3.80;;;14.30;81.40;;;;;;5096401;28;20490;-37
2021/08/24 02:37:24;;;;;;;5.32;3.40;;;14.50;81.30;;;;;;5096409;28;20020;-37
2021/08/24 02:40:07;;;;;;;4.63;3.30;;;14.40;81.60;;;;;;5085321;28;20036;-37
2021/08/24 02:43:05;;;;;;;6.38;3.72;;;14.30;81.80;;;;;;5096124;28;20467;-37
2021/08/24 02:45:35;;;;;;;5.68;3.45;;;14.30;82.00;;;;;;5081596;28;20062;-37
2021/08/24 02:48:04;;;;;;;4.50;3.35;;;14.30;82.40;;;;;;5095464;28;20133;-37
2021/08/24 02:50:30;;;;;;;5.78;3.97;;;14.30;82.20;;;;;;5096178;28;20073;-37
2021/08/24 02:52:56;;;;;;;9.43;4.05;;;14.20;82.40;;;;;;5096227;28;20103;-37
2021/08/24 02:55:22;;;;;;;5.80;4.05;;;14.20;82.60;;;;;;5095734;28;20024;-38
2021/08/24 02:57:48;;;;;;;7.47;4.13;;;14.10;82.70;;;;;;5095718;28;20020;-38
2021/08/24 03:00:15;;;;;;;11.93;4.40;;;14.10;82.80;;;;;;5078707;28;20048;-38
2021/08/24 03:02:41;;;;;;;6.88;3.63;;;14.10;83.10;;;;;;5095725;28;20024;-38
2021/08/24 03:05:07;;;;;;;6.65;3.88;;;14.10;83.20;;;;;;5095947;28;20016;-37
2021/08/24 03:07:35;;;;;;;4.70;3.20;;;14.00;83.40;;;;;;5095954;28;20092;-37
2021/08/24 03:10:07;;;;;;;6.13;3.30;;;14.00;83.50;;;;;;5095796;28;20031;-38
2021/08/24 03:12:56;;;;;;;7.18;4.60;;;13.90;83.70;;;;;;5095461;28;20052;-38
2021/08/24 03:16:06;;;;;;;6.40;3.83;;;13.80;83.90;;;;;;5094664;28;20028;-37
2021/08/24 03:18:40;;;;;;;5.35;3.33;;;13.80;84.10;;;;;;5095562;28;20027;-37
2021/08/24 03:21:10;;;;;;;5.85;3.30;;;13.80;84.30;;;;;;5095395;28;20039;-37
2021/08/24 03:23:42;;;;;;;5.03;2.88;;;13.80;84.50;;;;;;5095692;28;20520;-37
2021/08/24 03:26:08;;;;;;;5.53;3.53;;;13.80;84.60;;;;;;5095650;28;20029;-37
2021/08/24 03:28:37;;;;;;;6.47;3.90;;;13.80;84.30;;;;;;5095383;28;20353;-37
2021/08/24 03:31:03;;;;;;;4.82;3.15;;;13.80;84.50;;;;;;5095498;28;20035;-37
2021/08/24 03:33:28;;;;;;;8.70;3.80;;;13.80;84.60;;;;;;5095136;28;20031;-37
2021/08/24 03:35:54;;;;;;;6.20;4.57;;;13.80;84.80;;;;;;5094999;28;20032;-37
2021/08/24 03:38:20;;;;;;;5.20;3.40;;;13.80;84.30;;;;;;5093333;28;20031;-37
2021/08/24 03:40:46;;;;;;;8.35;3.35;;;13.80;84.20;;;;;;5094822;28;20035;-37
2021/08/24 03:43:12;;;;;;;3.70;2.95;;;13.60;84.50;;;;;;5094886;28;20020;-37
2021/08/24 03:45:37;;;;;;;4.82;3.65;;;13.40;85.20;;;;;;5095046;28;20059;-37
2021/08/24 03:48:04;;;;;;;6.20;3.15;;;13.30;85.60;;;;;;5093224;28;20062;-37
2021/08/24 03:50:29;;;;;;;4.32;3.35;;;13.30;86.00;;;;;;5094369;28;20040;-38
2021/08/24 03:52:55;;;;;;;4.63;3.10;;;13.30;86.30;;;;;;5094673;28;20321;-38
2021/08/24 03:55:21;;;;;;;8.27;5.03;;;13.30;86.40;;;;;;5094267;28;20042;-37
2021/08/24 03:57:46;;;;;;;7.40;3.42;;;13.30;86.50;;;;;;5092993;28;20113;-37
2021/08/24 04:00:13;;;;;;;9.23;3.65;;;13.30;86.50;;;;;;5093181;28;20384;-37
2021/08/24 04:02:39;;;;;;;8.23;3.78;;;13.30;86.50;;;;;;5094891;28;20043;-38
2021/08/24 04:05:05;;;;;;;4.97;3.47;;;13.30;86.50;;;;;;5094850;28;20103;-37
2021/08/24 04:07:32;;;;;;;5.13;3.22;;;13.30;86.60;;;;;;5094437;28;20027;-37
2021/08/24 04:10:03;;;;;;;10.63;3.42;;;13.30;86.60;;;;;;5094838;28;20023;-38
2021/08/24 04:12:30;;;;;;;5.72;4.05;;;13.30;86.70;;;;;;5095206;28;20044;-37
2021/08/24 04:14:56;;;;;;;6.55;4.30;;;13.30;86.50;;;;;;5094843;28;20043;-36
2021/08/24 04:17:21;;;;;;;7.68;3.85;;;13.30;86.70;;;;;;5093007;28;20131;-37
2021/08/24 04:19:47;;;;;;;5.38;3.65;;;13.30;86.70;;;;;;5094118;28;20027;-37
2021/08/24 04:22:18;;;;;;;10.45;4.20;;;13.30;86.60;;;;;;5094326;28;20028;-36
2021/08/24 04:24:44;;;;;;;6.15;3.90;;;13.20;86.80;;;;;;5094393;28;20416;-37
2021/08/24 04:27:09;;;;;;;7.13;3.75;;;13.10;86.80;;;;;;5093983;28;20043;-37
2021/08/24 04:29:36;;;;;;;5.00;3.05;;;13.10;87.00;;;;;;5094055;28;20482;-37
2021/08/24 04:32:05;;;;;;;5.45;4.03;;;13.00;87.00;;;;;;5093759;28;20395;-38
2021/08/24 04:34:31;;;;;;;7.32;3.70;;;13.00;87.10;;;;;;5094086;28;20032;-37
2021/08/24 04:36:56;;;;;;;4.10;3.40;;;12.90;87.10;;;;;;5094217;28;20024;-37
2021/08/24 04:39:23;;;;;;;5.78;3.97;;;12.90;87.20;;;;;;5093818;28;20048;-37
2021/08/24 04:41:48;;;;;;;6.95;3.85;;;12.80;87.50;;;;;;5093705;28;20101;-37
2021/08/24 04:44:14;;;;;;;4.65;3.50;;;12.80;87.50;;;;;;5093849;28;20056;-39
2021/08/24 04:46:40;;;;;;;10.38;3.35;;;12.80;87.60;;;;;;5094008;28;20465;-37
2021/08/24 04:49:05;;;;;;;6.05;4.00;;;12.80;87.50;;;;;;5093720;28;20024;-37
2021/08/24 04:51:31;;;;;;;4.75;3.63;;;12.80;87.70;;;;;;5093848;28;20356;-36
2021/08/24 04:53:57;;;;;;;7.85;4.47;;;12.90;87.50;;;;;;5093367;28;20073;-36
2021/08/24 04:56:22;;;;;;;5.90;3.55;;;12.90;87.60;;;;;;5093363;28;20345;-36
2021/08/24 04:58:48;;;;;;;6.50;4.40;;;12.90;87.80;;;;;;5093306;28;20021;-36
2021/08/24 05:01:14;;;;;;;8.93;4.00;;;12.90;87.80;;;;;;5093953;28;20412;-37
2021/08/24 05:03:39;;;;;;;6.40;3.38;;;12.90;87.70;;;;;;5093366;28;20024;-37
2021/08/24 05:06:05;;;;;;;9.93;3.85;;;13.00;87.60;;;;;;5093440;28;20076;-37
2021/08/24 05:08:30;;;;;;;7.13;4.18;;;13.00;87.50;;;;;;5093204;28;20032;-37
2021/08/24 05:10:56;;;;;;;4.85;3.47;;;13.00;87.40;;;;;;5093568;28;20523;-37
2021/08/24 05:13:22;;;;;;;5.53;3.50;;;13.00;87.40;;;;;;5093054;28;20051;-37
2021/08/24 05:15:47;;;;;;;14.80;5.80;;;13.00;87.50;;;;;;5091702;28;20107;-37
2021/08/24 05:18:13;;;;;;;6.82;4.15;;;13.00;87.40;;;;;;5093134;28;20016;-37
2021/08/24 05:20:39;;;;;;;7.13;4.40;;;13.10;87.40;;;;;;5093036;28;20071;-37
2021/08/24 05:23:05;;;;;;;8.80;4.32;;;13.30;87.40;;;;;;5092865;28;20027;-36
2021/08/24 05:25:31;;;;;;;7.75;4.28;;;13.30;86.70;;;;;;5091670;28;20047;-36
2021/08/24 05:27:56;;;;;;;5.10;4.38;;;13.30;86.60;;;;;;5093294;28;20055;-37
2021/08/24 05:30:24;;;;;;;9.05;4.57;;;13.30;86.60;;;;;;5091842;28;20115;-36
2021/08/24 05:32:51;;;;;;;13.07;5.28;;;13.30;86.80;;;;;;5093015;28;20042;-36
2021/08/24 05:35:18;;;;;;;11.48;6.45;;;13.30;86.90;;;;;;5092812;28;20058;-36
2021/08/24 05:37:44;;;;;;;11.95;5.32;;;13.30;86.90;;;;;;5092251;28;20032;-36
2021/08/24 05:40:11;;;;;;;10.18;5.78;;;13.40;86.90;;;;;;5092753;28;20020;-38
2021/08/24 05:42:37;;;;;;;11.63;5.88;;;13.50;86.80;;;;;;5091492;28;20028;-41
2021/08/24 05:45:05;;;;;;;11.75;6.85;;;13.50;86.60;;;;;;5092990;28;20024;-37
2021/08/24 05:47:31;;;;;;;10.27;6.85;;;13.60;86.70;;;;;;5091431;28;20028;-37
2021/08/24 05:49:59;;;;;;;6.38;4.97;;;13.70;86.40;;;;;;5092761;28;20035;-37
2021/08/24 05:52:24;;;;;;;8.75;6.05;;;13.80;86.10;;;;;;5092325;28;20020;-37
2021/08/24 05:54:50;;;;;;;9.27;6.05;;;13.80;86.10;;;;;;5091302;28;20119;-37
2021/08/24 05:57:17;;;;;;;9.18;5.70;;;13.80;85.90;;;;;;5092170;28;20032;-37
2021/08/24 05:59:43;;;;;;;8.10;5.55;;;13.80;85.90;;;;;;5092337;28;20468;-37
2021/08/24 06:02:08;;;;;;;9.65;6.50;;;13.90;85.90;;;;;;5092822;28;20020;-37
2021/08/24 06:04:35;;;;;;;9.10;6.32;;;14.00;85.80;;;;;;5092679;28;20039;-37
2021/08/24 06:07:00;;;;;;;6.57;5.22;;;14.10;85.50;;;;;;5091174;28;20032;-37
2021/08/24 06:09:26;;;;;;;9.20;5.22;;;14.20;85.20;;;;;;5092884;28;20107;-36
2021/08/24 06:11:52;;;;;;;11.10;5.82;;;14.30;84.70;;;;;;5092764;28;20054;-37
2021/08/24 06:14:20;;;;;;;12.07;5.28;;;14.40;84.60;;;;;;5092599;28;20442;-37
2021/08/24 06:16:47;;;;;;;9.18;5.63;;;14.60;83.80;;;;;;5092507;28;20103;-37
2021/08/24 06:19:13;;;;;;;9.82;5.90;;;14.80;83.50;;;;;;5092247;28;20024;-37
2021/08/24 06:21:39;;;;;;;16.55;5.93;;;14.80;83.20;;;;;;5092411;28;20024;-46
2021/08/24 06:24:07;;;;;;;7.82;6.13;;;14.80;82.90;;;;;;5092262;28;20089;-38
2021/08/24 06:26:33;;;;;;;11.77;5.05;;;15.00;82.50;;;;;;5092325;28;20016;-37
2021/08/24 06:28:59;;;;;;;6.55;4.75;;;15.10;81.80;;;;;;5092840;28;20029;-38
2021/08/24 06:31:27;;;;;;;7.80;5.13;;;15.20;81.80;;;;;;5093926;28;20020;-36
2021/08/24 06:33:53;;;;;;;9.30;5.25;;;15.20;80.80;;;;;;5092816;28;20027;-37
2021/08/24 06:36:20;;;;;;;7.88;4.72;;;15.20;81.20;;;;;;5092257;28;20488;-37
2021/08/24 06:38:46;;;;;;;8.13;5.28;;;15.20;79.90;;;;;;5090572;28;20344;-37
2021/08/24 06:41:12;;;;;;;8.70;5.47;;;15.20;80.00;;;;;;5092433;28;20485;-37
2021/08/24 06:43:38;;;;;;;10.02;5.10;;;15.30;80.20;;;;;;5092294;28;20021;-37
2021/08/24 06:46:05;;;;;;;10.90;5.85;;;15.30;79.50;;;;;;5092103;28;20043;-37
2021/08/24 06:48:31;;;;;;;8.25;5.18;;;15.50;79.50;;;;;;5091856;28;20416;-37
2021/08/24 06:50:57;;;;;;;8.05;4.30;;;15.50;78.80;;;;;;5093050;28;20028;-38
2021/08/24 06:53:23;;;;;;;6.93;5.15;;;15.60;77.50;;;;;;5095893;28;20093;-37
2021/08/24 06:55:49;;;;;;;5.65;4.40;;;15.50;78.20;;;;;;5094005;28;20036;-38
2021/08/24 06:58:15;;;;;;;8.25;5.00;;;15.60;77.70;;;;;;5095794;28;20120;-38
2021/08/24 07:00:43;;;;;;;7.07;4.70;;;15.80;77.50;;;;;;5094224;28;20340;-39
2021/08/24 07:03:09;;;;;;;7.97;4.65;;;15.90;76.80;;;;;;5095479;28;20103;-39
2021/08/24 07:05:36;;;;;;;6.78;4.68;;;16.10;76.20;;;;;;5096075;28;20479;-38
2021/08/24 07:08:02;;;;;;;7.28;4.70;;;16.20;75.20;;;;;;5096045;28;20031;-38
2021/08/24 07:10:28;;;;;;;7.30;4.95;;;16.50;74.30;;;;;;5096099;28;20426;-36
2021/08/24 07:12:54;;;;;;;7.63;4.80;;;16.50;73.90;;;;;;5095998;28;20052;-37
2021/08/24 07:15:22;;;;;;;7.43;4.45;;;16.80;73.10;;;;;;5094430;28;20054;-38
2021/08/24 07:17:51;;;;;;;7.65;5.50;;;16.90;72.40;;;;;;5096883;28;20035;-38
2021/08/24 07:20:21;;;;;;;8.80;5.50;;;17.10;71.30;;;;;;5094463;28;20089;-37
2021/08/24 07:22:47;;;;;;;9.10;4.35;;;17.00;72.00;;;;;;5095591;28;20513;-38
2021/08/24 07:25:16;;;;;;;13.80;5.20;;;17.10;71.30;;;;;;5095348;28;20028;-38
2021/08/24 07:27:41;;;;;;;6.53;4.25;;;17.10;70.50;;;;;;5095471;28;20024;-38
2021/08/24 07:30:08;;;;;;;4.35;3.33;;;17.30;69.70;;;;;;5095276;28;20077;-38
2021/08/24 07:32:34;;;;;;;8.43;4.32;;;17.40;69.60;;;;;;5096420;28;20055;-38
2021/08/24 07:35:00;;;;;;;6.25;3.97;;;17.40;68.80;;;;;;5094181;28;20025;-40
2021/08/24 07:37:26;;;;;;;5.45;3.80;;;17.50;68.80;;;;;;5095682;28;20078;-47
2021/08/24 07:39:52;;;;;;;6.20;3.63;;;17.50;67.30;;;;;;5095187;28;20417;-37
2021/08/24 07:42:17;;;;;;;6.35;3.15;;;17.60;67.30;;;;;;5094721;28;20451;-38
2021/08/24 07:44:43;;;;;;;6.25;3.13;;;17.80;67.30;;;;;;5095252;28;20035;-37
2021/08/24 07:47:10;;;;;;;4.93;3.47;;;17.70;67.10;;;;;;5094594;28;20046;-36
2021/08/24 07:49:38;;;;;;;8.07;3.83;;;17.70;66.60;;;;;;5093432;28;20460;-38
2021/08/24 07:52:06;;;;;;;7.53;4.75;;;17.80;66.70;;;;;;5093168;28;20052;-37
2021/08/24 07:54:33;;;;;;;5.45;3.65;;;18.10;66.60;;;;;;5094370;28;20027;-37
2021/08/24 07:56:59;;;;;;;6.88;5.10;;;18.20;66.70;;;;;;5095875;28;20493;-38
2021/08/24 07:59:25;;;;;;;6.22;4.30;;;18.20;67.00;;;;;;5094749;28;20033;-37
2021/08/24 08:01:53;;;;;;;6.05;2.80;;;18.60;64.20;;;;;;5094420;28;20070;-36
2021/08/24 08:04:20;;;;;;;7.63;3.70;;;19.10;62.00;;;;;;5094375;28;20402;-38
2021/08/24 08:06:46;;;;;;;4.10;3.05;;;19.50;61.40;;;;;;5092802;28;20115;-36
2021/08/24 08:09:11;;;;;;;5.95;3.00;;;19.90;58.60;;;;;;5094045;28;20123;-38
2021/08/24 08:11:38;;;;;;;4.47;2.72;;;19.60;58.80;;;;;;5094468;28;20028;-38
2021/08/24 08:14:04;;;;;;;5.43;3.45;;;19.70;58.40;;;;;;5094181;28;20081;-38
2021/08/24 08:16:31;;;;;;;4.00;2.30;;;19.80;56.30;;;;;;5094460;28;20031;-38
2021/08/24 08:18:56;;;;;;;3.45;2.33;;;19.70;55.60;;;;;;5093962;28;20103;-38
2021/08/24 08:21:22;;;;;;;2.67;2.08;;;19.70;56.60;;;;;;5093503;28;20051;-38
2021/08/24 08:23:48;;;;;;;4.20;3.08;;;20.30;54.20;;;;;;5091978;28;20464;-36
2021/08/24 08:26:15;;;;;;;6.15;2.70;;;20.80;53.90;;;;;;5093253;28;20027;-37
2021/08/24 08:28:41;;;;;;;7.07;2.60;;;20.80;51.70;;;;;;5091811;28;20036;-38
2021/08/24 08:31:12;;;;;;;3.72;2.63;;;20.80;52.50;;;;;;5093249;28;20035;-37
2021/08/24 08:33:37;;;;;;;3.28;2.47;;;20.40;53.20;;;;;;5093494;28;20028;-37
2021/08/24 08:36:07;;;;;;;4.20;2.13;;;20.80;51.80;;;;;;5093425;28;20028;-38
2021/08/24 08:38:32;;;;;;;4.65;2.67;;;21.10;51.20;;;;;;5093318;28;20028;-38
2021/08/24 08:41:09;;;;;;;4.95;2.33;;;21.40;50.20;;;;;;5093439;28;20046;-39
2021/08/24 08:43:54;;;;;;;5.70;2.65;;;21.30;50.00;;;;;;5093722;28;20073;-38
2021/08/24 08:46:46;;;;;;;4.07;2.53;;;21.00;51.30;;;;;;5093162;28;20032;-38
2021/08/24 08:49:27;;;;;;;4.07;2.22;;;21.30;49.60;;;;;;5092820;28;20028;-37
2021/08/24 08:52:04;;;;;;;3.33;1.90;;;20.60;51.60;;;;;;5091465;28;20364;-37
2021/08/24 08:54:37;;;;;;;3.00;2.17;;;20.30;52.50;;;;;;5093264;28;20043;-37
2021/08/24 08:57:15;;;;;;;3.97;2.47;;;20.90;51.50;;;;;;5091600;28;20017;-37
2021/08/24 08:59:43;;;;;;;3.67;2.50;;;20.60;51.20;;;;;;5092808;28;20031;-37
2021/08/24 09:02:19;;;;;;;4.65;2.70;;;20.70;51.50;;;;;;5091348;28;20016;-38
2021/08/24 09:04:47;;;;;;;6.30;2.75;;;21.60;49.20;;;;;;5093214;28;20068;-37
2021/08/24 09:07:46;;;;;;;4.47;2.35;;;21.60;48.70;;;;;;5092905;28;20016;-38
2021/08/24 09:10:38;;;;;;;3.33;2.08;;;21.90;48.00;;;;;;5091199;28;20035;-37
2021/08/24 09:13:16;;;;;;;7.38;2.50;;;22.40;45.30;;;;;;5091957;28;20040;-37
2021/08/24 09:16:06;;;;;;;4.75;2.90;;;21.80;45.00;;;;;;5092222;28;20035;-37
2021/08/24 09:18:52;;;;;;;3.05;2.17;;;21.20;46.60;;;;;;5092331;28;20057;-37
2021/08/24 09:21:23;;;;;;;4.97;2.58;;;20.50;48.50;;;;;;5092543;28;20024;-37
2021/08/24 09:23:52;;;;;;;5.00;2.30;;;21.90;46.20;;;;;;5092813;28;20024;-38
2021/08/24 09:26:39;;;;;;;6.82;2.28;;;22.80;43.60;;;;;;5092925;28;20035;-38
2021/08/24 09:29:07;;;;;;;3.22;2.92;;;22.50;44.20;;;;;;5091433;28;20024;-38
2021/08/24 09:31:33;;;;;;;3.53;2.00;;;22.60;43.70;;;;;;5092701;28;20426;-38
2021/08/24 09:33:59;;;;;;;8.48;2.42;;;21.80;44.50;;;;;;5092754;28;20031;-38
2021/08/24 09:36:25;;;;;;;3.85;2.30;;;21.90;44.30;;;;;;5092152;28;20032;-37
2021/08/24 09:38:57;;;;;;;5.50;2.58;;;22.20;44.10;;;;;;5092237;28;20031;-37
2021/08/24 09:41:28;;;;;;;3.42;2.30;;;22.20;45.00;;;;;;5091833;28;20025;-37
2021/08/24 09:44:16;;;;;;;3.22;2.28;;;22.20;44.80;;;;;;5091996;28;20020;-37
2021/08/24 09:46:43;;;;;;;4.07;2.60;;;23.00;44.00;;;;;;5092601;28;20321;-40
2021/08/24 09:49:30;;;;;;;6.50;2.50;;;22.80;43.10;;;;;;5091367;28;20020;-36
2021/08/24 09:52:00;;;;;;;4.70;2.72;;;22.00;44.50;;;;;;5090555;28;20024;-37
2021/08/24 09:54:31;;;;;;;5.27;1.90;;;21.90;45.10;;;;;;5092251;28;20059;-36
2021/08/24 09:57:17;;;;;;;4.32;2.70;;;21.70;44.90;;;;;;5092384;28;20099;-37
2021/08/24 09:59:54;;;;;;;6.88;2.85;;;21.70;44.10;;;;;;5092644;28;20024;-40
2021/08/24 10:02:44;;;;;;;4.03;2.25;;;22.00;44.00;;;;;;5092488;28;20383;-36
2021/08/24 10:05:35;;;;;;;4.50;3.22;;;22.70;42.80;;;;;;5082642;28;20032;-37
2021/08/24 10:08:31;;;;;;;2.63;2.10;;;22.80;43.20;;;;;;5092645;28;20413;-37
2021/08/24 10:11:04;;;;;;;4.25;2.47;;;22.80;43.70;;;;;;5091156;28;20048;-37
2021/08/24 10:13:37;;;;;;;6.65;2.67;;;23.30;42.10;;;;;;5091416;28;20109;-37
2021/08/24 10:16:04;;;;;;;6.07;2.50;;;23.40;42.30;;;;;;5092032;28;20102;-37
2021/08/24 10:18:30;;;;;;;3.00;1.90;;;23.00;41.70;;;;;;5092205;28;20012;-39
2021/08/24 10:21:11;;;;;;;5.35;2.42;;;23.80;40.70;;;;;;5092582;28;20020;-37
2021/08/24 10:23:57;;;;;;;5.15;3.00;;;24.30;40.40;;;;;;5093158;28;20377;-37
2021/08/24 10:26:29;;;;;;;6.90;2.60;;;24.60;39.30;;;;;;5096559;28;20060;-37
2021/08/24 10:29:00;;;;;;;5.38;2.85;;;23.70;40.50;;;;;;5095857;28;20020;-37
2021/08/24 10:31:39;;;;;;;7.88;3.60;;;23.90;41.30;;;;;;5095901;28;20020;-38
2021/08/24 10:34:28;;;;;;;4.45;2.55;;;24.80;39.80;;;;;;5095773;28;20048;-38
2021/08/24 10:37:15;;;;;;;4.15;2.33;;;24.40;39.10;;;;;;5096243;28;20375;-38
2021/08/24 10:39:42;;;;;;;5.70;3.00;;;23.30;38.80;;;;;;5096083;28;20483;-37
2021/08/24 10:42:16;;;;;;;4.60;2.50;;;23.20;38.90;;;;;;5096169;28;20024;-37
2021/08/24 10:44:46;;;;;;;6.50;3.33;;;22.80;40.00;;;;;;5095721;28;20028;-37
2021/08/24 10:47:23;;;;;;;;;;;23.20;39.20;;;;;;5096212;28;20035;-38
2021/08/24 10:49:50;;;;;;;5.07;2.60;;;23.30;39.70;;;;;;5096185;28;19904;-38
2021/08/24 10:52:52;;;;;;;5.35;2.38;;;23.80;40.00;;;;;;5095378;28;20028;-38
2021/08/24 10:55:29;;;;;;;8.85;2.42;;;23.50;38.60;;;;;;5096363;28;20437;-37
2021/08/24 10:58:07;;;;;;;5.72;2.58;;;23.60;39.10;;;;;;5095363;28;20169;-38
2021/08/24 11:00:39;;;;;;;4.88;2.55;;;23.70;38.80;;;;;;5095208;28;20020;-39
2021/08/24 11:03:44;;;;;;;4.50;3.05;;;23.30;39.20;;;;;;5095389;28;20024;-38
2021/08/24 11:06:28;;;;;;;3.92;2.30;;;24.00;36.40;;;;;;5094975;28;20124;-37
2021/08/24 11:09:31;;;;;;;3.45;2.35;;;24.90;36.10;;;;;;5093428;28;20024;-37
2021/08/24 11:11:57;;;;;;;3.22;2.35;;;23.80;39.70;;;;;;5094981;28;20024;-38
2021/08/24 11:14:35;;;;;;;6.45;2.95;;;24.80;36.90;;;;;;5093432;28;20028;-37
2021/08/24 11:17:45;;;;;;;6.15;3.03;;;24.10;38.40;;;;;;5094880;28;20078;-37
2021/08/24 11:20:25;;;;;;;4.60;2.20;;;23.80;38.30;;;;;;5016755;28;20371;-37
2021/08/24 11:23:24;;;;;;;6.75;1.95;;;24.20;38.80;;;;;;5084333;28;20047;-37
2021/08/24 11:25:58;;;;;;;2.47;1.95;;;24.30;39.40;;;;;;5094753;28;20417;-37
2021/08/24 11:29:08;;;;;;;3.67;2.40;;;24.70;38.80;;;;;;5093148;28;20107;-39
2021/08/24 11:31:43;;;;;;;2.95;1.90;;;24.40;38.50;;;;;;5094857;28;20047;-38
2021/08/24 11:34:23;;;;;;;3.00;1.58;;;24.80;37.50;;;;;;5094940;28;20047;-38
2021/08/24 11:36:56;;;;;;;5.20;2.50;;;25.60;37.40;;;;;;5094060;28;20028;-37
2021/08/24 11:39:29;;;;;;;2.78;1.95;;;24.90;38.20;;;;;;5094593;28;20257;-38
2021/08/24 11:42:02;;;;;;;4.05;1.98;;;25.10;38.00;;;;;;5094657;28;20349;-40
2021/08/24 11:44:52;;;;;;;5.85;2.78;;;25.30;36.50;;;;;;5094456;28;20033;-37
2021/08/24 11:47:42;;;;;;;7.95;2.65;;;24.30;38.80;;;;;;5084993;28;20040;-36
2021/08/24 11:50:17;;;;;;;5.15;2.35;;;24.10;39.30;;;;;;5092389;28;20047;-38
2021/08/24 11:52:53;;;;;;;3.10;2.13;;;24.20;38.80;;;;;;5092913;28;20035;-39
2021/08/24 11:55:40;;;;;;;10.25;2.50;;;24.00;39.40;;;;;;5094056;28;20020;-37
2021/08/24 11:58:40;;;;;;;3.70;2.05;;;24.50;39.80;;;;;;5094003;28;20383;-37
2021/08/24 12:01:07;;;;;;;4.25;2.20;;;25.00;38.30;;;;;;5094140;28;20378;-38
2021/08/24 12:03:37;;;;;;;3.80;2.10;;;24.80;37.30;;;;;;5094030;28;20016;-37
2021/08/24 12:06:28;;;;;;;5.32;2.50;;;24.90;35.50;;;;;;5094461;28;20099;-38
2021/08/24 12:08:56;;;;;;;3.38;2.35;;;25.70;34.70;;;;;;5094364;28;20493;-38
2021/08/24 12:11:39;;;;;;;4.40;2.42;;;24.60;37.00;;;;;;5093812;28;20073;-38
2021/08/24 12:14:35;;;;;;;6.53;2.67;;;24.50;37.60;;;;;;5094273;28;20048;-38
2021/08/24 12:17:20;;;;;;;3.40;2.22;;;24.70;37.50;;;;;;5093928;28;20032;-38
2021/08/24 12:20:01;;;;;;;4.13;2.28;;;25.00;37.20;;;;;;5093972;28;20063;-39
2021/08/24 12:22:36;;;;;;;6.00;2.63;;;24.60;38.00;;;;;;5093457;28;20016;-38
2021/08/24 12:25:25;;;;;;;5.20;2.85;;;23.70;39.90;;;;;;5094068;28;20109;-38
2021/08/24 12:27:56;;;;;;;3.15;1.80;;;23.00;41.30;;;;;;5094035;28;20383;-37
2021/08/24 12:30:27;;;;;;;5.88;2.28;;;22.80;42.20;;;;;;5093904;28;20024;-37
2021/08/24 12:32:52;;;;;;;4.80;2.40;;;23.20;40.50;;;;;;5091818;28;20032;-38
2021/08/24 12:35:32;;;;;;;3.60;2.45;;;22.80;41.30;;;;;;5093631;28;20424;-38
2021/08/24 12:38:00;;;;;;;5.22;2.22;;;22.50;42.80;;;;;;5093675;28;20023;-38
2021/08/24 12:40:31;;;;;;;7.90;2.95;;;22.80;41.30;;;;;;5093191;28;20024;-38
2021/08/24 12:43:18;;;;;;;6.07;2.33;;;22.90;41.50;;;;;;5093686;28;20020;-38
2021/08/24 12:45:44;;;;;;;3.20;1.90;;;22.70;42.50;;;;;;5093608;28;20477;-38
2021/08/24 12:48:17;;;;;;;3.88;1.85;;;22.30;44.30;;;;;;5093245;28;20039;-37
2021/08/24 12:50:49;;;;;;;4.18;2.90;;;22.90;42.10;;;;;;5091998;28;20032;-38
2021/08/24 12:53:30;;;;;;;3.25;1.98;;;23.60;40.80;;;;;;5093224;28;20024;-38
2021/08/24 12:56:01;;;;;;;5.75;1.80;;;23.90;39.50;;;;;;5091459;28;20184;-37
2021/08/24 12:58:50;;;;;;;5.70;1.92;;;23.90;40.30;;;;;;5093028;28;20025;-38
2021/08/24 13:01:22;;;;;;;2.85;1.77;;;23.30;42.40;;;;;;5082042;28;20029;-38
2021/08/24 13:04:18;;;;;;;6.75;2.50;;;23.20;42.50;;;;;;5092881;28;20140;-38
2021/08/24 13:06:47;;;;;;;3.65;1.85;;;22.80;43.80;;;;;;5092672;28;20068;-38
2021/08/24 13:09:19;;;;;;;5.20;2.25;;;22.80;43.40;;;;;;5092898;28;20028;-38
2021/08/24 13:12:12;;;;;;;4.03;1.98;;;22.90;43.20;;;;;;5091189;28;20026;-38